Time;durP1;ratioP1;P1;durP2;ratioP2;P2;SDS_P1;SDS_P2;PMS_P1;PMS_P2;Temp;Humidity;BMP_temperature;BMP_pressure;BME280_temperature;BME280_humidity;BME280_pressure;Samples;Min_cycle;Max_cycle;Signal;HPM_P1;HPM_P2
2022/10/24 00:04:17;;;;;;;32.63;28.85;;;22.60;60.10;;;;;;4737802;59;20986;-26
2022/10/24 00:09:17;;;;;;;32.55;28.42;;;22.60;60.00;;;;;;4801160;55;21507;-36
2022/10/24 00:14:18;;;;;;;35.25;28.67;;;22.60;60.10;;;;;;4890846;55;21567;-36
2022/10/24 00:19:19;;;;;;;32.92;27.60;;;22.60;60.10;;;;;;4737561;59;21014;-36
2022/10/24 00:24:23;;;;;;;34.30;28.45;;;22.60;60.00;;;;;;4752586;55;21070;-32
2022/10/24 00:29:24;;;;;;;32.92;27.13;;;22.60;60.00;;;;;;4737448;59;21049;-29
2022/10/24 00:34:25;;;;;;;30.70;26.15;;;22.50;60.00;;;;;;4747359;55;21493;-36
2022/10/24 00:39:25;;;;;;;34.80;28.20;;;22.50;60.00;;;;;;4737331;59;21018;-32
2022/10/24 00:44:38;;;;;;;33.78;27.75;;;22.60;60.00;;;;;;4757236;55;21484;-31
2022/10/24 00:50:39;;;;;;;32.40;27.48;;;22.60;60.00;;;;;;4757579;55;20978;-31
2022/10/24 00:55:41;;;;;;;33.58;26.58;;;22.60;60.00;;;;;;4759845;55;21456;-29
2022/10/24 01:00:42;;;;;;;32.30;26.85;;;22.50;60.00;;;;;;4761186;55;21057;-31
2022/10/24 01:06:04;;;;;;;31.70;26.33;;;22.50;59.90;;;;;;4742027;55;21014;-28
2022/10/24 01:11:31;;;;;;;30.52;26.10;;;22.50;59.90;;;;;;4753703;55;20994;-34
2022/10/24 01:16:53;;;;;;;30.88;26.58;;;22.50;59.90;;;;;;4747628;55;21006;-25
2022/10/24 01:23:36;;;;;;;30.40;25.60;;;22.50;59.90;;;;;;4743765;55;21097;-33
2022/10/24 01:30:21;;;;;;;31.83;27.05;;;22.60;59.90;;;;;;4744361;55;21041;-35
2022/10/24 01:36:31;;;;;;;32.83;26.02;;;22.60;60.00;;;;;;4754559;55;21037;-28
2022/10/24 01:41:32;;;;;;;30.50;26.10;;;22.50;59.90;;;;;;4738772;59;21026;-36
2022/10/24 01:46:39;;;;;;;28.70;25.55;;;22.60;59.90;;;;;;4745637;55;21011;-35
2022/10/24 01:51:41;;;;;;;33.30;26.75;;;22.60;59.90;;;;;;4746193;55;21005;-30
2022/10/24 01:56:42;;;;;;;30.98;25.37;;;22.60;59.90;;;;;;4760045;55;21070;-29
2022/10/24 02:01:43;;;;;;;31.00;25.65;;;22.60;59.90;;;;;;4738046;59;21483;-33
2022/10/24 02:06:47;;;;;;;30.23;25.65;;;22.50;59.80;;;;;;4762146;55;20990;-27
2022/10/24 02:11:51;;;;;;;28.90;23.67;;;22.50;59.80;;;;;;4759731;55;21531;-36
2022/10/24 02:16:52;;;;;;;29.23;24.25;;;22.50;59.80;;;;;;4750150;55;21033;-27
2022/10/24 02:22:25;;;;;;;28.20;23.92;;;22.60;59.90;;;;;;4812697;55;21046;-36
2022/10/24 02:28:14;;;;;;;28.40;23.35;;;22.50;59.80;;;;;;4781544;55;21038;-33
2022/10/24 02:33:16;;;;;;;30.10;24.65;;;22.50;59.80;;;;;;4747475;55;21010;-31
2022/10/24 02:38:29;;;;;;;28.73;23.38;;;22.50;59.80;;;;;;4750639;55;21057;-36
2022/10/24 02:43:31;;;;;;;30.80;24.33;;;22.50;59.80;;;;;;4757796;55;21050;-28
2022/10/24 02:48:37;;;;;;;28.92;23.55;;;22.60;59.80;;;;;;4758066;55;21073;-30
2022/10/24 02:53:39;;;;;;;26.58;23.10;;;22.50;59.80;;;;;;4737996;59;21030;-29
2022/10/24 02:58:40;;;;;;;27.10;23.33;;;22.50;59.70;;;;;;4752408;55;21026;-31
2022/10/24 03:03:40;;;;;;;32.42;24.48;;;22.50;59.70;;;;;;4825497;55;21029;-35
2022/10/24 03:08:41;;;;;;;26.70;22.08;;;22.50;59.70;;;;;;4761801;55;20994;-36
2022/10/24 03:13:42;;;;;;;26.77;22.25;;;22.50;59.70;;;;;;4751183;55;21428;-32
2022/10/24 03:18:43;;;;;;;26.40;22.37;;;22.50;59.70;;;;;;4760797;55;20990;-30
2022/10/24 03:23:44;;;;;;;26.40;22.50;;;22.50;59.70;;;;;;4738385;59;21006;-26
2022/10/24 03:28:44;;;;;;;28.55;22.98;;;22.50;59.80;;;;;;4749987;55;21034;-35
2022/10/24 03:33:45;;;;;;;25.52;21.90;;;22.50;59.60;;;;;;4742639;55;21101;-35
2022/10/24 03:38:46;;;;;;;28.67;23.00;;;22.50;59.60;;;;;;4784237;55;21038;-31
2022/10/24 03:43:47;;;;;;;25.37;21.05;;;22.50;59.60;;;;;;4756581;55;21500;-35
2022/10/24 03:48:47;;;;;;;25.92;21.08;;;22.50;59.50;;;;;;4753343;55;21038;-27
2022/10/24 03:53:48;;;;;;;25.42;21.23;;;22.50;59.50;;;;;;4759904;55;21018;-33
2022/10/24 03:58:52;;;;;;;25.23;21.05;;;22.50;59.50;;;;;;4739129;55;21034;-29
2022/10/24 04:03:53;;;;;;;24.73;20.65;;;22.50;59.40;;;;;;4767191;55;21002;-35
2022/10/24 04:08:54;;;;;;;24.45;20.80;;;22.50;59.40;;;;;;4759167;55;21492;-29
2022/10/24 04:13:55;;;;;;;22.80;19.60;;;22.50;59.40;;;;;;4738688;59;21555;-27
2022/10/24 04:18:56;;;;;;;23.77;21.15;;;22.50;59.40;;;;;;4762943;55;21010;-27
2022/10/24 04:23:57;;;;;;;26.62;21.55;;;22.50;59.40;;;;;;4752023;55;20998;-38
2022/10/24 04:28:58;;;;;;;26.10;20.55;;;22.50;59.40;;;;;;4751881;55;21062;-30
2022/10/24 04:33:59;;;;;;;24.75;20.77;;;22.50;59.40;;;;;;4741488;55;21041;-26
2022/10/24 04:39:00;;;;;;;25.45;20.08;;;22.50;59.40;;;;;;4738299;59;21022;-36
2022/10/24 04:44:03;;;;;;;23.95;18.83;;;22.50;59.40;;;;;;4738195;59;21592;-32
2022/10/24 04:49:04;;;;;;;25.12;20.02;;;22.50;59.40;;;;;;4750186;55;21074;-35
2022/10/24 04:54:06;;;;;;;25.23;20.12;;;22.50;59.30;;;;;;4749636;55;21515;-29
2022/10/24 04:59:07;;;;;;;24.52;19.48;;;22.50;59.30;;;;;;4774345;55;21568;-29
2022/10/24 05:04:08;;;;;;;23.50;19.73;;;22.50;59.30;;;;;;4737769;59;21034;-30
2022/10/24 05:09:09;;;;;;;22.92;18.77;;;22.50;59.90;;;;;;4738982;59;21472;-27
2022/10/24 05:14:10;;;;;;;25.33;19.95;;;22.50;59.20;;;;;;4738697;59;21002;-27
2022/10/24 05:19:10;;;;;;;25.48;19.85;;;22.50;59.20;;;;;;4760699;55;21002;-32
2022/10/24 05:24:11;;;;;;;23.30;19.65;;;22.50;59.20;;;;;;4738545;59;21468;-34
2022/10/24 05:29:12;;;;;;;25.58;20.02;;;22.50;59.20;;;;;;4744326;55;21105;-37
2022/10/24 05:34:13;;;;;;;26.08;19.92;;;22.50;59.20;;;;;;4780256;55;21009;-30
2022/10/24 05:39:14;;;;;;;23.27;19.05;;;22.50;59.10;;;;;;4737569;59;21006;-35
2022/10/24 05:44:15;;;;;;;23.75;19.23;;;22.50;59.10;;;;;;4737943;59;21464;-35
2022/10/24 05:49:15;;;;;;;22.83;19.35;;;22.50;59.10;;;;;;4752985;55;21054;-30
2022/10/24 05:54:16;;;;;;;26.33;20.02;;;22.40;59.10;;;;;;4759654;55;21030;-30
2022/10/24 05:59:17;;;;;;;24.85;19.98;;;22.50;59.10;;;;;;4745491;55;21036;-33
2022/10/24 06:04:18;;;;;;;22.95;19.58;;;22.50;59.00;;;;;;4738096;59;21033;-34
2022/10/24 06:09:19;;;;;;;23.75;19.08;;;22.50;59.00;;;;;;4753563;55;21984;-32
2022/10/24 06:14:19;;;;;;;24.77;20.40;;;22.50;59.10;;;;;;4737829;59;21340;-28
2022/10/24 06:19:20;;;;;;;26.33;20.95;;;22.50;59.10;;;;;;4778769;55;21007;-31
2022/10/24 06:24:21;;;;;;;26.50;20.90;;;22.50;59.70;;;;;;4737869;59;21593;-28
2022/10/24 06:29:22;;;;;;;26.17;20.27;;;22.50;59.10;;;;;;4752289;55;21030;-38
2022/10/24 06:34:23;;;;;;;24.65;19.20;;;22.50;59.00;;;;;;4757757;55;21013;-33
2022/10/24 06:39:24;;;;;;;28.95;21.92;;;22.50;59.00;;;;;;4738357;55;21037;-35
2022/10/24 06:44:25;;;;;;;27.30;21.42;;;22.50;59.00;;;;;;4754620;55;21006;-35
2022/10/24 06:49:25;;;;;;;28.30;21.65;;;22.50;59.00;;;;;;4754144;55;21081;-33
2022/10/24 06:54:26;;;;;;;30.27;23.98;;;22.50;59.00;;;;;;4758048;55;21018;-35
2022/10/24 06:59:27;;;;;;;34.08;26.55;;;22.60;59.10;;;;;;4753245;55;21096;-42
2022/10/24 07:04:28;;;;;;;40.03;28.90;;;22.70;59.00;;;;;;4759286;55;21480;-39
2022/10/24 07:09:29;;;;;;;40.85;31.55;;;22.80;58.90;;;;;;4743885;59;21113;-45
2022/10/24 07:14:30;;;;;;;43.35;32.53;;;22.80;58.90;;;;;;4744579;59;21455;-32
2022/10/24 07:19:31;;;;;;;45.05;33.80;;;22.80;59.10;;;;;;4785323;55;21073;-33
2022/10/24 07:24:32;;;;;;;48.40;34.85;;;22.90;58.90;;;;;;4784297;55;21037;-31
2022/10/24 07:29:33;;;;;;;49.08;33.50;;;22.90;59.10;;;;;;4745500;59;20994;-32
2022/10/24 07:34:34;;;;;;;48.00;36.00;;;22.90;59.30;;;;;;4814839;55;21069;-38
2022/10/24 07:39:36;;;;;;;51.53;36.88;;;23.00;59.40;;;;;;4744789;59;21503;-44
2022/10/24 07:44:37;;;;;;;50.53;37.72;;;23.00;59.50;;;;;;4744798;59;21563;-42
2022/10/24 07:49:38;;;;;;;52.30;39.67;;;23.00;59.50;;;;;;4764810;55;21038;-36
2022/10/24 07:54:38;;;;;;;52.83;38.88;;;23.00;59.50;;;;;;4817306;55;21010;-36
2022/10/24 07:59:39;;;;;;;51.47;38.92;;;23.10;59.60;;;;;;4835863;55;21089;-36
2022/10/24 08:04:40;;;;;;;51.53;38.60;;;23.10;59.60;;;;;;4781138;55;21106;-27
2022/10/24 08:09:43;;;;;;;53.95;39.85;;;23.10;59.60;;;;;;4777030;55;20986;-30
2022/10/24 08:14:45;;;;;;;55.60;40.50;;;23.10;59.70;;;;;;4744837;59;21414;-40
2022/10/24 08:19:46;;;;;;;61.45;41.97;;;23.10;59.80;;;;;;4753468;55;21487;-29
2022/10/24 08:24:47;;;;;;;68.20;43.63;;;23.20;60.10;;;;;;4750580;55;21158;-46
2022/10/24 08:29:48;;;;;;;67.07;42.78;;;23.20;59.40;;;;;;4819667;55;21049;-35
2022/10/24 08:34:49;;;;;;;64.95;44.63;;;23.10;59.30;;;;;;4963451;55;21082;-43
2022/10/24 08:39:49;;;;;;;80.80;52.62;;;23.10;59.20;;;;;;4743614;59;21017;-33
2022/10/24 08:44:51;;;;;;;86.72;55.22;;;23.00;57.70;;;;;;4744855;59;21072;-28
2022/10/24 08:50:13;;;;;;;87.55;55.47;;;23.00;57.70;;;;;;4868361;55;21128;-33
2022/10/24 08:55:20;;;;;;;85.38;55.22;;;22.90;57.70;;;;;;4744387;56;21097;-37
2022/10/24 09:00:26;;;;;;;;;;;22.90;57.80;;;;;;4771397;55;21077;-43
2022/10/24 09:05:35;;;;;;;99.37;60.20;;;22.90;57.80;;;;;;4764321;55;20108;-30
2022/10/24 09:11:03;;;;;;;92.72;59.30;;;22.90;58.00;;;;;;4745263;59;21547;-30
2022/10/24 09:16:04;;;;;;;89.70;59.03;;;22.90;57.50;;;;;;4744743;59;21037;-30
2022/10/24 09:21:08;;;;;;;91.15;58.67;;;22.90;58.10;;;;;;4761640;55;21155;-34
2022/10/24 09:26:23;;;;;;;92.45;58.15;;;22.90;58.00;;;;;;4772260;55;21037;-37
2022/10/24 09:31:26;;;;;;;84.13;59.70;;;22.90;58.00;;;;;;4842079;55;21033;-36
2022/10/24 09:36:29;;;;;;;89.28;59.92;;;22.90;58.00;;;;;;4745061;59;21189;-36
2022/10/24 09:41:32;;;;;;;85.07;57.97;;;22.90;58.00;;;;;;4849985;55;21140;-32
2022/10/24 09:46:44;;;;;;;87.18;59.15;;;22.90;58.20;;;;;;4778866;55;21464;-36
2022/10/24 09:52:05;;;;;;;85.20;58.67;;;23.00;58.40;;;;;;4864494;55;21503;-31
2022/10/24 09:57:16;;;;;;;82.45;58.13;;;23.10;58.50;;;;;;4764685;55;21070;-31
2022/10/24 10:02:26;;;;;;;83.90;54.80;;;23.00;58.50;;;;;;4833615;55;21543;-37
2022/10/24 10:07:38;;;;;;;77.62;53.63;;;23.10;59.10;;;;;;4818338;55;20990;-28
2022/10/24 10:12:41;;;;;;;80.55;54.80;;;23.10;59.60;;;;;;4917883;55;20986;-34
2022/10/24 10:17:53;;;;;;;73.85;52.17;;;23.20;59.90;;;;;;4786625;55;21536;-41
2022/10/24 10:22:54;;;;;;;81.28;55.67;;;23.20;60.00;;;;;;4769661;55;21114;-44
2022/10/24 10:27:54;;;;;;;82.37;55.25;;;23.30;60.30;;;;;;4794641;55;21551;-31
2022/10/24 10:36:18;;;;;;;76.53;53.63;;;23.30;60.50;;;;;;4782971;55;21065;-39
2022/10/24 10:41:47;;;;;;;79.95;56.47;;;23.30;60.90;;;;;;4784562;55;21049;-37
2022/10/24 10:50:39;;;;;;;81.30;56.00;;;23.30;60.90;;;;;;4745077;59;21002;-33
2022/10/24 10:57:11;;;;;;;80.68;54.75;;;23.40;61.00;;;;;;4754893;55;21479;-38
2022/10/24 11:03:49;;;;;;;78.55;53.85;;;23.40;61.30;;;;;;4869043;55;21042;-45
2022/10/24 11:09:15;;;;;;;76.95;55.17;;;23.40;61.40;;;;;;4770409;55;20990;-29
2022/10/24 11:14:40;;;;;;;80.90;56.00;;;23.50;61.70;;;;;;4886140;55;21102;-37
2022/10/24 11:20:03;;;;;;;76.87;55.28;;;23.50;61.80;;;;;;4777906;55;20994;-37
2022/10/24 11:25:47;;;;;;;78.72;52.75;;;23.50;62.10;;;;;;4800549;55;21216;-35
2022/10/24 11:32:42;;;;;;;80.05;54.13;;;23.50;61.80;;;;;;4773301;55;21034;-47
2022/10/24 11:37:46;;;;;;;74.40;53.05;;;23.50;61.80;;;;;;4894111;55;21504;-46
2022/10/24 11:43:26;;;;;;;76.40;52.53;;;23.40;61.70;;;;;;5019546;55;21101;-42
2022/10/24 11:48:38;;;;;;;74.55;53.50;;;23.40;61.70;;;;;;5034185;55;21046;-39
2022/10/24 11:53:57;;;;;;;76.50;53.05;;;23.40;61.70;;;;;;4745621;59;21047;-48
2022/10/24 11:59:05;;;;;;;80.22;55.53;;;23.40;61.70;;;;;;4745360;55;20970;-36
2022/10/24 12:11:12;;;;;;;75.60;52.60;;;23.40;61.90;;;;;;4745697;59;21472;-42
2022/10/24 12:17:18;;;;;;;72.03;52.95;;;23.40;62.40;;;;;;4780741;55;21009;-35
2022/10/24 12:22:26;;;;;;;71.03;51.37;;;23.50;62.90;;;;;;4782911;55;21467;-43
2022/10/24 12:27:38;;;;;;;71.12;51.83;;;23.50;63.10;;;;;;4903458;55;21528;-32
2022/10/24 12:33:26;;;;;;;71.07;52.88;;;23.60;63.20;;;;;;4839859;55;21479;-44
2022/10/24 12:39:27;;;;;;;74.97;53.60;;;23.60;63.30;;;;;;4791428;55;21579;-49
2022/10/24 12:44:39;;;;;;;74.75;52.67;;;23.60;63.60;;;;;;4791608;55;21538;-38
2022/10/24 12:49:41;;;;;;;72.53;53.83;;;23.60;63.80;;;;;;4812873;55;21559;-39
2022/10/24 12:54:44;;;;;;;70.90;51.15;;;23.60;63.80;;;;;;4840371;55;21002;-35
2022/10/24 12:59:52;;;;;;;71.65;51.10;;;23.70;64.00;;;;;;4744703;59;21126;-30
2022/10/24 13:06:42;;;;;;;69.35;51.13;;;23.70;64.10;;;;;;4829551;55;21064;-47
2022/10/24 13:15:09;;;;;;;78.57;52.22;;;23.70;64.10;;;;;;4860565;55;21046;-44
2022/10/24 13:20:23;;;;;;;77.68;52.22;;;23.70;64.40;;;;;;4754981;55;21121;-36
2022/10/24 13:25:34;;;;;;;71.65;51.17;;;23.90;65.20;;;;;;4744638;59;21062;-46
2022/10/24 13:30:34;;;;;;;72.35;52.50;;;23.70;64.50;;;;;;4744225;59;21062;-45
2022/10/24 13:35:35;;;;;;;75.45;53.65;;;23.70;64.40;;;;;;4777220;55;20998;-44
2022/10/24 13:40:40;;;;;;;74.55;53.92;;;23.70;64.50;;;;;;4744070;55;21070;-46
2022/10/24 13:45:56;;;;;;;79.72;52.20;;;23.70;64.50;;;;;;4963905;55;20982;-34
2022/10/24 13:54:10;;;;;;;104.87;53.08;;;23.70;65.20;;;;;;4749613;55;21176;-41
2022/10/24 13:59:28;;;;;;;93.30;51.10;;;23.60;66.00;;;;;;4793705;55;21551;-42
2022/10/24 14:04:30;;;;;;;86.53;52.53;;;23.60;65.50;;;;;;4806131;55;20974;-44
2022/10/24 14:09:41;;;;;;;83.70;52.50;;;23.50;65.50;;;;;;4846657;55;20985;-39
2022/10/24 14:14:46;;;;;;;82.47;49.88;;;23.50;65.50;;;;;;4783691;55;21117;-42
2022/10/24 14:20:45;;;;;;;80.72;51.40;;;23.50;65.50;;;;;;4907058;55;21028;-40
2022/10/24 14:26:03;;;;;;;84.47;49.35;;;23.40;65.40;;;;;;4761099;55;21114;-41
2022/10/24 14:31:07;;;;;;;73.72;50.90;;;23.40;65.40;;;;;;4754228;55;21062;-49
2022/10/24 14:36:09;;;;;;;74.50;48.30;;;23.40;65.30;;;;;;4753052;55;21002;-45
2022/10/24 14:41:10;;;;;;;72.85;48.42;;;23.30;65.40;;;;;;4744113;59;21010;-41
2022/10/24 14:47:03;;;;;;;77.32;49.78;;;23.30;65.40;;;;;;5061081;55;20998;-37
2022/10/24 14:53:05;;;;;;;77.18;50.47;;;23.30;65.40;;;;;;4812189;55;20978;-44
2022/10/24 14:58:19;;;;;;;72.90;49.50;;;23.20;65.30;;;;;;4793112;55;21010;-40
2022/10/24 15:03:20;;;;;;;69.65;48.75;;;23.30;65.30;;;;;;4981452;55;20978;-45
2022/10/24 15:08:37;;;;;;;73.80;50.63;;;23.30;65.20;;;;;;5012022;55;21066;-43
2022/10/24 15:13:50;;;;;;;69.18;47.58;;;23.30;65.20;;;;;;4983369;55;21008;-41
2022/10/24 15:18:54;;;;;;;68.00;49.83;;;23.20;65.10;;;;;;4799284;55;21073;-36
2022/10/24 15:23:59;;;;;;;68.10;50.00;;;23.30;65.20;;;;;;5053550;55;21006;-43
2022/10/24 15:29:22;;;;;;;69.10;48.83;;;23.20;65.00;;;;;;4932101;55;21085;-43
2022/10/24 15:34:23;;;;;;;63.58;46.90;;;23.20;65.50;;;;;;4895740;55;20998;-43
2022/10/24 15:39:24;;;;;;;70.78;49.25;;;23.20;65.10;;;;;;4872246;55;21536;-43
2022/10/24 15:44:28;;;;;;;70.68;48.87;;;23.20;65.10;;;;;;4745265;56;21006;-42
2022/10/24 15:49:30;;;;;;;64.60;47.83;;;23.20;64.90;;;;;;4772848;55;21061;-42
2022/10/24 15:54:31;;;;;;;67.82;48.30;;;23.20;65.50;;;;;;4882509;55;21563;-44
2022/10/24 15:59:31;;;;;;;65.97;47.03;;;23.20;64.80;;;;;;4744238;59;21145;-41
2022/10/24 16:04:32;;;;;;;64.07;46.17;;;23.20;64.80;;;;;;4745245;59;21563;-44
2022/10/24 16:09:33;;;;;;;66.85;47.83;;;23.20;64.70;;;;;;4891491;55;21082;-49
2022/10/24 16:14:34;;;;;;;64.20;48.40;;;23.20;64.60;;;;;;4844927;55;20982;-46
2022/10/24 16:19:35;;;;;;;66.10;48.15;;;23.20;64.70;;;;;;4797707;55;21081;-43
2022/10/24 16:24:35;;;;;;;61.25;46.80;;;23.20;64.70;;;;;;4751527;55;21077;-41
2022/10/24 16:29:36;;;;;;;64.22;47.40;;;23.20;64.70;;;;;;4921931;55;21547;-43
2022/10/24 16:34:37;;;;;;;67.37;47.62;;;23.20;64.70;;;;;;4745465;59;21070;-40
2022/10/24 16:39:38;;;;;;;63.53;46.90;;;23.20;64.60;;;;;;4743858;56;21033;-42
2022/10/24 16:44:39;;;;;;;66.90;46.28;;;23.20;64.70;;;;;;4910368;55;20998;-46
2022/10/24 16:49:40;;;;;;;63.65;46.55;;;23.10;64.50;;;;;;4858913;55;21017;-41
2022/10/24 16:54:40;;;;;;;60.92;44.75;;;23.10;64.40;;;;;;4744179;59;21496;-44
2022/10/24 16:59:41;;;;;;;61.63;45.97;;;23.10;64.40;;;;;;4773740;55;21053;-47
2022/10/24 17:04:43;;;;;;;65.43;48.53;;;23.10;64.40;;;;;;4744553;59;21069;-41
2022/10/24 17:09:44;;;;;;;63.20;46.25;;;23.10;64.40;;;;;;4763818;55;21097;-44
2022/10/24 17:14:44;;;;;;;62.95;46.05;;;23.10;64.40;;;;;;4895971;55;21579;-41
2022/10/24 17:19:47;;;;;;;64.25;46.37;;;23.10;64.40;;;;;;4981455;55;21499;-44
2022/10/24 17:24:48;;;;;;;62.25;45.80;;;23.10;64.30;;;;;;4744874;59;21531;-47
2022/10/24 17:29:50;;;;;;;62.78;46.20;;;23.10;64.30;;;;;;4885036;55;21065;-49
2022/10/24 17:34:52;;;;;;;63.90;46.30;;;23.10;64.20;;;;;;4914560;55;21061;-45
2022/10/24 17:40:04;;;;;;;59.38;46.37;;;23.10;64.20;;;;;;4744449;59;21525;-43
2022/10/24 17:45:17;;;;;;;61.88;45.25;;;23.10;64.10;;;;;;4793155;55;21022;-45
2022/10/24 17:50:18;;;;;;;62.67;46.03;;;23.10;64.10;;;;;;5000206;55;20985;-47
2022/10/24 17:55:24;;;;;;;60.50;46.47;;;23.10;64.10;;;;;;4852355;55;21203;-46
2022/10/24 18:00:25;;;;;;;62.60;45.53;;;23.10;64.10;;;;;;4948184;55;21276;-49
2022/10/24 18:05:27;;;;;;;64.60;47.45;;;23.10;64.10;;;;;;4808132;55;21560;-38
2022/10/24 18:10:28;;;;;;;63.65;44.65;;;23.10;64.00;;;;;;4745020;59;21538;-48
2022/10/24 18:15:29;;;;;;;64.07;47.20;;;23.10;64.00;;;;;;4744824;59;21067;-41
2022/10/24 18:20:31;;;;;;;64.10;46.13;;;23.00;63.90;;;;;;5045298;55;21098;-45
2022/10/24 18:25:32;;;;;;;65.82;48.33;;;23.00;63.90;;;;;;4815531;55;21629;-45
2022/10/24 18:30:34;;;;;;;59.00;46.37;;;23.00;63.90;;;;;;4794864;55;20994;-40
2022/10/24 18:35:35;;;;;;;62.45;46.55;;;23.10;63.80;;;;;;4744955;59;21555;-45
2022/10/24 18:40:37;;;;;;;60.38;46.55;;;23.00;63.80;;;;;;5213604;55;20994;-47
2022/10/24 18:45:38;;;;;;;61.33;47.10;;;23.00;63.70;;;;;;4902576;55;21551;-41
2022/10/24 18:50:39;;;;;;;64.93;47.67;;;23.00;63.70;;;;;;4745004;59;20990;-41
2022/10/24 18:55:41;;;;;;;65.05;47.15;;;23.00;63.70;;;;;;4744902;59;21010;-45
2022/10/24 19:00:42;;;;;;;60.28;45.50;;;23.00;63.70;;;;;;4944692;55;21069;-41
2022/10/24 19:05:51;;;;;;;63.83;48.97;;;23.00;63.60;;;;;;5105709;55;21062;-43
2022/10/24 19:10:54;;;;;;;59.50;45.70;;;23.00;63.60;;;;;;4745123;59;21563;-43
2022/10/24 19:15:58;;;;;;;63.05;46.03;;;23.00;63.50;;;;;;5004695;55;21018;-35
2022/10/24 19:20:59;;;;;;;62.62;46.22;;;23.00;63.50;;;;;;4851073;55;21536;-39
2022/10/24 19:26:00;;;;;;;63.10;47.47;;;23.00;63.40;;;;;;4786902;55;21037;-41
2022/10/24 19:31:01;;;;;;;60.63;46.03;;;23.00;63.40;;;;;;4774098;55;21005;-46
2022/10/24 19:36:03;;;;;;;63.53;46.60;;;23.00;63.30;;;;;;4744647;59;21073;-39
2022/10/24 19:41:07;;;;;;;61.97;46.60;;;23.00;63.30;;;;;;4744758;59;21070;-42
2022/10/24 19:46:08;;;;;;;62.38;47.70;;;23.00;63.30;;;;;;4823010;55;21014;-45
2022/10/24 19:51:11;;;;;;;65.07;47.80;;;23.00;63.20;;;;;;4789476;55;21073;-42
2022/10/24 19:56:18;;;;;;;65.18;47.45;;;23.00;63.20;;;;;;5091761;55;21010;-42
2022/10/24 20:01:21;;;;;;;58.42;46.00;;;23.00;63.10;;;;;;5001707;55;21022;-43
2022/10/24 20:06:25;;;;;;;63.55;46.63;;;23.00;63.10;;;;;;5215402;55;21002;-33
2022/10/24 20:11:27;;;;;;;64.20;46.47;;;23.00;63.10;;;;;;4767884;55;21017;-46
2022/10/24 20:16:28;;;;;;;60.83;45.70;;;23.00;63.00;;;;;;4745569;59;21138;-42
2022/10/24 20:21:29;;;;;;;61.60;45.47;;;23.00;62.90;;;;;;4885351;55;21062;-41
2022/10/24 20:26:30;;;;;;;59.97;44.47;;;23.00;62.90;;;;;;5230655;55;21524;-46
2022/10/24 20:31:42;;;;;;;58.30;43.97;;;23.00;62.90;;;;;;4903145;55;21078;-48
2022/10/24 20:36:46;;;;;;;59.10;44.78;;;23.00;62.80;;;;;;4897768;55;21551;-35
2022/10/24 20:41:47;;;;;;;58.87;44.58;;;23.00;62.80;;;;;;4888369;55;21496;-37
2022/10/24 20:46:48;;;;;;;60.53;44.67;;;23.00;62.60;;;;;;4868292;55;21069;-42
2022/10/24 20:51:49;;;;;;;60.12;43.87;;;23.00;62.60;;;;;;5063495;55;21085;-39
2022/10/24 20:56:49;;;;;;;57.20;43.45;;;22.90;62.50;;;;;;4846493;55;21061;-45
2022/10/24 21:01:50;;;;;;;55.38;42.00;;;22.90;62.50;;;;;;4748245;55;21137;-45
2022/10/24 21:06:51;;;;;;;57.88;43.78;;;22.90;63.20;;;;;;4832910;55;21085;-33
2022/10/24 21:11:52;;;;;;;53.75;41.55;;;22.90;62.40;;;;;;4881958;55;21061;-41
2022/10/24 21:16:53;;;;;;;53.97;40.53;;;22.90;62.30;;;;;;4960142;55;21596;-39
2022/10/24 21:21:53;;;;;;;56.35;41.53;;;22.90;62.30;;;;;;4876075;55;21025;-36
2022/10/24 21:26:54;;;;;;;54.65;41.83;;;22.90;62.30;;;;;;4795815;55;21034;-44
2022/10/24 21:31:55;;;;;;;53.65;40.50;;;22.90;62.20;;;;;;5230814;55;21014;-36
2022/10/24 21:36:56;;;;;;;59.30;41.67;;;22.90;62.20;;;;;;4781100;55;20994;-37
2022/10/24 21:41:57;;;;;;;52.72;40.63;;;22.90;62.20;;;;;;4805603;55;21018;-38
2022/10/24 21:46:57;;;;;;;51.30;40.00;;;22.90;62.90;;;;;;4745607;55;20994;-37
2022/10/24 21:51:58;;;;;;;51.53;39.00;;;22.90;62.10;;;;;;4902880;55;21009;-30
2022/10/24 21:56:59;;;;;;;51.72;38.88;;;22.90;62.20;;;;;;4745351;59;20998;-41
2022/10/24 22:02:00;;;;;;;50.05;39.03;;;22.90;62.20;;;;;;5030141;55;21125;-38
2022/10/24 22:07:01;;;;;;;52.03;39.17;;;22.90;62.20;;;;;;4785097;55;21041;-35
2022/10/24 22:12:03;;;;;;;52.78;38.67;;;22.90;62.20;;;;;;4745764;59;21509;-39
2022/10/24 22:17:04;;;;;;;48.83;36.78;;;22.90;62.20;;;;;;4745390;59;21484;-36
2022/10/24 22:22:05;;;;;;;49.25;37.60;;;22.90;62.20;;;;;;4794769;55;21134;-39
2022/10/24 22:27:05;;;;;;;51.03;36.67;;;22.90;62.10;;;;;;4744418;59;21025;-32
2022/10/24 22:32:12;;;;;;;48.08;37.08;;;22.90;62.10;;;;;;4873067;55;21496;-34
2022/10/24 22:37:34;;;;;;;51.53;38.10;;;22.90;62.20;;;;;;4992157;55;21465;-41
2022/10/24 22:42:35;;;;;;;48.63;37.08;;;22.90;62.10;;;;;;4745201;59;21033;-45
2022/10/24 22:48:09;;;;;;;51.53;37.88;;;22.90;62.10;;;;;;4801101;55;21572;-41
2022/10/24 22:53:15;;;;;;;48.50;36.58;;;22.90;62.10;;;;;;4858243;55;20978;-41
2022/10/24 22:58:16;;;;;;;46.83;35.67;;;22.90;62.00;;;;;;4803632;55;21037;-35
2022/10/24 23:05:01;;;;;;;48.30;35.78;;;22.90;62.00;;;;;;5130707;55;20990;-39
2022/10/24 23:10:05;;;;;;;49.13;35.28;;;22.90;62.00;;;;;;5023652;55;21041;-44
2022/10/24 23:15:10;;;;;;;46.63;36.20;;;22.90;62.00;;;;;;4746014;59;20982;-38
2022/10/24 23:20:40;;;;;;;47.70;35.33;;;22.90;62.00;;;;;;5050139;55;21006;-41
2022/10/24 23:25:55;;;;;;;43.08;34.42;;;22.80;61.90;;;;;;4823348;55;21030;-38
2022/10/24 23:30:56;;;;;;;40.88;32.97;;;22.90;62.00;;;;;;4930564;55;21001;-44
2022/10/24 23:35:59;;;;;;;42.47;34.30;;;22.90;61.90;;;;;;5204353;55;20986;-39
2022/10/24 23:41:00;;;;;;;44.33;33.67;;;22.90;62.00;;;;;;4909408;55;21483;-44
2022/10/24 23:46:08;;;;;;;45.60;33.63;;;22.90;62.00;;;;;;4828233;55;20978;-43
2022/10/24 23:51:29;;;;;;;45.38;34.50;;;22.90;62.00;;;;;;4966572;55;21041;-31
2022/10/24 23:56:31;;;;;;;42.78;32.63;;;22.90;61.90;;;;;;4822548;55;21555;-44
